sensor_id;sensor_type;location;lat;lon;timestamp;pressure;altitude;pressure_sealevel;temperature;humidity
70437;BME280;57877;39.750;-104.894;2023-04-26T00:01:28;83348.91;;;5.18;63.11
70437;BME280;57877;39.750;-104.894;2023-04-26T00:03:53;83355.07;;;3.96;64.42
70437;BME280;57877;39.750;-104.894;2023-04-26T00:06:18;83355.60;;;4.31;64.90
70437;BME280;57877;39.750;-104.894;2023-04-26T00:08:43;83362.49;;;3.72;64.14
70437;BME280;57877;39.750;-104.894;2023-04-26T00:11:09;83370.19;;;3.22;65.88
70437;BME280;57877;39.750;-104.894;2023-04-26T00:13:35;83373.98;;;2.81;66.56
70437;BME280;57877;39.750;-104.894;2023-04-26T00:16:00;83374.08;;;3.03;67.47
70437;BME280;57877;39.750;-104.894;2023-04-26T00:18:25;83379.41;;;3.33;65.97
70437;BME280;57877;39.750;-104.894;2023-04-26T00:20:50;83378.52;;;3.29;67.20
70437;BME280;57877;39.750;-104.894;2023-04-26T00:23:15;83388.03;;;3.67;66.29
70437;BME280;57877;39.750;-104.894;2023-04-26T00:25:40;83389.58;;;3.93;63.89
70437;BME280;57877;39.750;-104.894;2023-04-26T00:28:07;83393.52;;;4.16;61.40
70437;BME280;57877;39.750;-104.894;2023-04-26T00:30:30;83394.12;;;3.95;62.61
70437;BME280;57877;39.750;-104.894;2023-04-26T00:32:56;83396.14;;;3.13;64.26
70437;BME280;57877;39.750;-104.894;2023-04-26T00:35:20;83395.07;;;2.95;65.64
70437;BME280;57877;39.750;-104.894;2023-04-26T00:37:45;83400.24;;;3.04;66.10
70437;BME280;57877;39.750;-104.894;2023-04-26T00:40:11;83406.34;;;4.09;63.77
70437;BME280;57877;39.750;-104.894;2023-04-26T00:42:36;83410.19;;;3.51;64.82
70437;BME280;57877;39.750;-104.894;2023-04-26T00:45:01;83412.37;;;2.25;67.84
70437;BME280;57877;39.750;-104.894;2023-04-26T00:47:26;83417.14;;;3.87;62.73
70437;BME280;57877;39.750;-104.894;2023-04-26T00:49:51;83416.77;;;3.94;62.38
70437;BME280;57877;39.750;-104.894;2023-04-26T00:52:16;83415.49;;;3.79;61.41
70437;BME280;57877;39.750;-104.894;2023-04-26T00:54:41;83415.74;;;3.70;62.08
70437;BME280;57877;39.750;-104.894;2023-04-26T00:57:10;83417.91;;;4.43;59.87
70437;BME280;57877;39.750;-104.894;2023-04-26T00:59:31;83420.74;;;4.57;59.14
70437;BME280;57877;39.750;-104.894;2023-04-26T01:01:57;83417.13;;;4.20;59.86
70437;BME280;57877;39.750;-104.894;2023-04-26T01:04:21;83417.46;;;3.90;59.96
70437;BME280;57877;39.750;-104.894;2023-04-26T01:06:46;83420.72;;;4.98;57.34
70437;BME280;57877;39.750;-104.894;2023-04-26T01:09:11;83420.42;;;4.53;58.44
70437;BME280;57877;39.750;-104.894;2023-04-26T01:11:37;83424.58;;;3.83;60.15
70437;BME280;57877;39.750;-104.894;2023-04-26T01:14:03;83423.78;;;3.90;60.30
70437;BME280;57877;39.750;-104.894;2023-04-26T01:16:27;83425.67;;;3.98;58.40
70437;BME280;57877;39.750;-104.894;2023-04-26T01:18:52;83427.69;;;4.71;58.42
70437;BME280;57877;39.750;-104.894;2023-04-26T01:21:20;83427.24;;;5.38;58.36
70437;BME280;57877;39.750;-104.894;2023-04-26T01:23:42;83430.70;;;4.46;59.03
70437;BME280;57877;39.750;-104.894;2023-04-26T01:26:07;83436.86;;;4.51;59.45
70437;BME280;57877;39.750;-104.894;2023-04-26T01:28:33;83442.99;;;4.96;58.55
70437;BME280;57877;39.750;-104.894;2023-04-26T01:30:58;83448.80;;;3.86;61.60
70437;BME280;57877;39.750;-104.894;2023-04-26T01:33:23;83452.34;;;5.05;59.30
70437;BME280;57877;39.750;-104.894;2023-04-26T01:35:48;83458.03;;;5.22;59.62
70437;BME280;57877;39.750;-104.894;2023-04-26T01:38:13;83462.94;;;3.93;61.80
70437;BME280;57877;39.750;-104.894;2023-04-26T01:40:38;83464.28;;;5.34;58.00
70437;BME280;57877;39.750;-104.894;2023-04-26T01:43:03;83465.94;;;5.58;57.80
70437;BME280;57877;39.750;-104.894;2023-04-26T01:45:28;83472.57;;;4.97;59.41
70437;BME280;57877;39.750;-104.894;2023-04-26T01:47:53;83474.36;;;4.79;60.22
70437;BME280;57877;39.750;-104.894;2023-04-26T01:50:18;83478.57;;;4.32;62.79
70437;BME280;57877;39.750;-104.894;2023-04-26T01:52:43;83481.66;;;5.70;58.86
70437;BME280;57877;39.750;-104.894;2023-04-26T01:55:09;83484.10;;;5.56;58.09
70437;BME280;57877;39.750;-104.894;2023-04-26T01:57:33;83485.06;;;5.62;57.61
70437;BME280;57877;39.750;-104.894;2023-04-26T01:59:59;83487.96;;;5.48;57.63
70437;BME280;57877;39.750;-104.894;2023-04-26T02:02:24;83489.96;;;5.60;58.99
70437;BME280;57877;39.750;-104.894;2023-04-26T02:04:49;83491.43;;;5.87;57.21
70437;BME280;57877;39.750;-104.894;2023-04-26T02:07:14;83490.56;;;6.57;55.06
70437;BME280;57877;39.750;-104.894;2023-04-26T02:09:39;83489.48;;;5.71;56.82
70437;BME280;57877;39.750;-104.894;2023-04-26T02:12:04;83492.17;;;6.12;55.92
70437;BME280;57877;39.750;-104.894;2023-04-26T02:14:29;83492.53;;;6.12;57.30
70437;BME280;57877;39.750;-104.894;2023-04-26T02:16:54;83496.99;;;6.66;55.53
70437;BME280;57877;39.750;-104.894;2023-04-26T02:19:19;83503.37;;;7.27;53.63
70437;BME280;57877;39.750;-104.894;2023-04-26T02:21:50;83507.41;;;6.27;54.21
70437;BME280;57877;39.750;-104.894;2023-04-26T02:24:10;83511.25;;;5.64;56.56
70437;BME280;57877;39.750;-104.894;2023-04-26T02:26:35;83513.23;;;6.86;54.35
70437;BME280;57877;39.750;-104.894;2023-04-26T02:28:59;83515.49;;;6.81;54.13
70437;BME280;57877;39.750;-104.894;2023-04-26T02:31:25;83520.01;;;7.10;53.66
70437;BME280;57877;39.750;-104.894;2023-04-26T02:33:50;83523.74;;;6.62;53.71
70437;BME280;57877;39.750;-104.894;2023-04-26T02:36:15;83524.04;;;6.49;54.00
70437;BME280;57877;39.750;-104.894;2023-04-26T02:38:40;83525.47;;;6.61;54.87
70437;BME280;57877;39.750;-104.894;2023-04-26T02:41:05;83526.28;;;6.23;55.28
70437;BME280;57877;39.750;-104.894;2023-04-26T02:43:30;83527.80;;;7.23;54.40
70437;BME280;57877;39.750;-104.894;2023-04-26T02:45:55;83531.47;;;6.90;54.20
70437;BME280;57877;39.750;-104.894;2023-04-26T02:48:20;83533.26;;;7.43;53.36
70437;BME280;57877;39.750;-104.894;2023-04-26T02:50:46;83538.27;;;7.00;55.56
70437;BME280;57877;39.750;-104.894;2023-04-26T02:53:10;83544.38;;;6.29;56.70
70437;BME280;57877;39.750;-104.894;2023-04-26T02:55:35;83550.46;;;6.25;56.88
70437;BME280;57877;39.750;-104.894;2023-04-26T02:58:01;83553.26;;;5.58;58.45
70437;BME280;57877;39.750;-104.894;2023-04-26T03:00:26;83556.32;;;4.68;61.53
70437;BME280;57877;39.750;-104.894;2023-04-26T03:02:51;83560.48;;;5.18;59.27
70437;BME280;57877;39.750;-104.894;2023-04-26T03:05:16;83566.20;;;5.64;58.22
70437;BME280;57877;39.750;-104.894;2023-04-26T03:07:41;83573.16;;;5.15;59.75
70437;BME280;57877;39.750;-104.894;2023-04-26T03:10:07;83574.40;;;5.09;59.50
70437;BME280;57877;39.750;-104.894;2023-04-26T03:12:31;83575.79;;;4.49;61.46
70437;BME280;57877;39.750;-104.894;2023-04-26T03:14:57;83579.18;;;4.72;62.44
70437;BME280;57877;39.750;-104.894;2023-04-26T03:17:22;83584.29;;;4.80;62.35
70437;BME280;57877;39.750;-104.894;2023-04-26T03:19:47;83589.21;;;5.22;59.97
70437;BME280;57877;39.750;-104.894;2023-04-26T03:22:12;83586.58;;;4.43;62.39
70437;BME280;57877;39.750;-104.894;2023-04-26T03:24:37;83592.02;;;4.34;62.25
70437;BME280;57877;39.750;-104.894;2023-04-26T03:27:02;83596.68;;;5.31;59.80
70437;BME280;57877;39.750;-104.894;2023-04-26T03:29:28;83597.92;;;4.14;61.72
70437;BME280;57877;39.750;-104.894;2023-04-26T03:31:53;83604.23;;;5.72;59.60
70437;BME280;57877;39.750;-104.894;2023-04-26T03:34:18;83605.56;;;5.86;59.22
70437;BME280;57877;39.750;-104.894;2023-04-26T03:36:43;83609.78;;;4.82;58.98
70437;BME280;57877;39.750;-104.894;2023-04-26T03:39:08;83615.44;;;4.86;61.97
70437;BME280;57877;39.750;-104.894;2023-04-26T03:41:33;83624.40;;;4.98;62.06
70437;BME280;57877;39.750;-104.894;2023-04-26T03:43:58;83627.47;;;5.97;59.86
70437;BME280;57877;39.750;-104.894;2023-04-26T03:46:23;83630.83;;;6.40;56.24
70437;BME280;57877;39.750;-104.894;2023-04-26T03:48:48;83632.94;;;6.78;55.75
70437;BME280;57877;39.750;-104.894;2023-04-26T03:51:13;83635.01;;;7.44;53.17
70437;BME280;57877;39.750;-104.894;2023-04-26T03:53:39;83640.67;;;7.84;51.91
70437;BME280;57877;39.750;-104.894;2023-04-26T03:56:03;83642.66;;;7.37;50.87
70437;BME280;57877;39.750;-104.894;2023-04-26T03:58:28;83649.33;;;6.94;50.84
70437;BME280;57877;39.750;-104.894;2023-04-26T04:00:56;83652.26;;;7.28;50.50
70437;BME280;57877;39.750;-104.894;2023-04-26T04:03:18;83658.66;;;7.37;50.13
70437;BME280;57877;39.750;-104.894;2023-04-26T04:05:43;83659.87;;;7.46;50.74
70437;BME280;57877;39.750;-104.894;2023-04-26T04:08:08;83662.24;;;7.44;50.05
70437;BME280;57877;39.750;-104.894;2023-04-26T04:10:33;83663.75;;;7.35;49.66
70437;BME280;57877;39.750;-104.894;2023-04-26T04:12:59;83670.58;;;7.56;49.70
70437;BME280;57877;39.750;-104.894;2023-04-26T04:15:24;83671.73;;;7.41;49.63
70437;BME280;57877;39.750;-104.894;2023-04-26T04:17:50;83673.31;;;7.57;49.52
70437;BME280;57877;39.750;-104.894;2023-04-26T04:20:15;83676.97;;;7.89;49.06
70437;BME280;57877;39.750;-104.894;2023-04-26T04:22:41;83679.98;;;7.66;49.21
70437;BME280;57877;39.750;-104.894;2023-04-26T04:25:07;83687.45;;;6.97;49.75
70437;BME280;57877;39.750;-104.894;2023-04-26T04:27:32;83694.80;;;6.06;52.98
70437;BME280;57877;39.750;-104.894;2023-04-26T04:29:57;83693.09;;;5.14;54.05
70437;BME280;57877;39.750;-104.894;2023-04-26T04:32:22;83692.09;;;6.30;54.44
70437;BME280;57877;39.750;-104.894;2023-04-26T04:34:47;83688.04;;;5.86;53.66
70437;BME280;57877;39.750;-104.894;2023-04-26T04:37:12;83683.36;;;6.50;53.36
70437;BME280;57877;39.750;-104.894;2023-04-26T04:39:37;83687.38;;;7.02;52.41
70437;BME280;57877;39.750;-104.894;2023-04-26T04:42:02;83687.31;;;7.26;51.93
70437;BME280;57877;39.750;-104.894;2023-04-26T04:44:27;83689.48;;;6.83;52.14
70437;BME280;57877;39.750;-104.894;2023-04-26T04:46:52;83690.99;;;6.07;53.91
70437;BME280;57877;39.750;-104.894;2023-04-26T04:49:17;83688.27;;;6.83;52.51
70437;BME280;57877;39.750;-104.894;2023-04-26T04:51:42;83691.80;;;6.98;51.49
70437;BME280;57877;39.750;-104.894;2023-04-26T04:54:12;83699.60;;;6.26;51.73
70437;BME280;57877;39.750;-104.894;2023-04-26T04:56:32;83704.51;;;5.40;53.66
70437;BME280;57877;39.750;-104.894;2023-04-26T04:58:57;83706.39;;;4.87;55.30
70437;BME280;57877;39.750;-104.894;2023-04-26T05:01:22;83703.24;;;4.81;56.03
70437;BME280;57877;39.750;-104.894;2023-04-26T05:03:49;83703.28;;;5.08;56.44
70437;BME280;57877;39.750;-104.894;2023-04-26T05:06:13;83702.54;;;4.58;57.29
70437;BME280;57877;39.750;-104.894;2023-04-26T05:08:38;83701.40;;;4.19;57.83
70437;BME280;57877;39.750;-104.894;2023-04-26T05:11:03;83702.90;;;5.06;56.90
70437;BME280;57877;39.750;-104.894;2023-04-26T05:13:28;83703.83;;;4.96;56.81
70437;BME280;57877;39.750;-104.894;2023-04-26T05:15:54;83709.96;;;5.13;55.91
70437;BME280;57877;39.750;-104.894;2023-04-26T05:18:19;83712.43;;;4.41;56.90
70437;BME280;57877;39.750;-104.894;2023-04-26T05:20:44;83712.35;;;4.63;57.18
70437;BME280;57877;39.750;-104.894;2023-04-26T05:23:09;83711.74;;;5.89;54.41
70437;BME280;57877;39.750;-104.894;2023-04-26T05:25:36;83713.08;;;4.28;56.95
70437;BME280;57877;39.750;-104.894;2023-04-26T05:27:59;83715.82;;;5.00;56.86
70437;BME280;57877;39.750;-104.894;2023-04-26T05:30:24;83717.99;;;5.18;55.85
70437;BME280;57877;39.750;-104.894;2023-04-26T05:32:49;83720.92;;;5.25;56.03
70437;BME280;57877;39.750;-104.894;2023-04-26T05:35:14;83718.98;;;5.08;54.92
70437;BME280;57877;39.750;-104.894;2023-04-26T05:37:39;83716.43;;;5.42;55.01
70437;BME280;57877;39.750;-104.894;2023-04-26T05:40:05;83708.37;;;4.95;55.55
70437;BME280;57877;39.750;-104.894;2023-04-26T05:42:30;83709.85;;;5.51;54.48
70437;BME280;57877;39.750;-104.894;2023-04-26T05:44:57;83707.68;;;4.56;55.99
70437;BME280;57877;39.750;-104.894;2023-04-26T05:47:20;83711.17;;;5.47;54.63
70437;BME280;57877;39.750;-104.894;2023-04-26T05:49:45;83711.57;;;4.92;55.62
70437;BME280;57877;39.750;-104.894;2023-04-26T05:52:10;83714.02;;;4.86;56.39
70437;BME280;57877;39.750;-104.894;2023-04-26T05:54:35;83718.31;;;5.56;55.34
70437;BME280;57877;39.750;-104.894;2023-04-26T05:57:01;83722.18;;;6.66;53.84
70437;BME280;57877;39.750;-104.894;2023-04-26T05:59:26;83723.73;;;6.40;53.46
70437;BME280;57877;39.750;-104.894;2023-04-26T06:01:51;83723.76;;;5.75;53.73
70437;BME280;57877;39.750;-104.894;2023-04-26T06:04:16;83722.47;;;5.60;55.03
70437;BME280;57877;39.750;-104.894;2023-04-26T06:06:41;83721.73;;;4.97;56.33
70437;BME280;57877;39.750;-104.894;2023-04-26T06:09:06;83722.78;;;5.59;55.08
70437;BME280;57877;39.750;-104.894;2023-04-26T06:11:31;83721.03;;;5.05;56.54
70437;BME280;57877;39.750;-104.894;2023-04-26T06:13:56;83724.31;;;5.71;55.89
70437;BME280;57877;39.750;-104.894;2023-04-26T06:16:22;83724.84;;;5.50;55.62
70437;BME280;57877;39.750;-104.894;2023-04-26T06:18:47;83722.23;;;5.39;55.43
70437;BME280;57877;39.750;-104.894;2023-04-26T06:21:12;83728.25;;;5.71;54.97
70437;BME280;57877;39.750;-104.894;2023-04-26T06:23:37;83730.53;;;4.89;56.64
70437;BME280;57877;39.750;-104.894;2023-04-26T06:26:02;83730.96;;;4.98;56.28
70437;BME280;57877;39.750;-104.894;2023-04-26T06:28:27;83728.52;;;5.52;56.26
70437;BME280;57877;39.750;-104.894;2023-04-26T06:30:52;83728.95;;;4.94;57.32
70437;BME280;57877;39.750;-104.894;2023-04-26T06:33:17;83728.66;;;5.40;56.45
70437;BME280;57877;39.750;-104.894;2023-04-26T06:35:42;83729.89;;;5.12;56.97
70437;BME280;57877;39.750;-104.894;2023-04-26T06:38:07;83735.97;;;5.35;57.80
70437;BME280;57877;39.750;-104.894;2023-04-26T06:40:33;83738.83;;;5.12;59.03
70437;BME280;57877;39.750;-104.894;2023-04-26T06:42:57;83741.02;;;5.08;58.32
70437;BME280;57877;39.750;-104.894;2023-04-26T06:45:22;83743.49;;;5.54;57.20
70437;BME280;57877;39.750;-104.894;2023-04-26T06:47:50;83744.66;;;4.86;58.08
70437;BME280;57877;39.750;-104.894;2023-04-26T06:50:13;83744.28;;;5.39;57.33
70437;BME280;57877;39.750;-104.894;2023-04-26T06:52:37;83747.20;;;4.75;60.20
70437;BME280;57877;39.750;-104.894;2023-04-26T06:55:03;83747.58;;;4.76;59.02
70437;BME280;57877;39.750;-104.894;2023-04-26T06:57:28;83748.76;;;5.21;58.15
70437;BME280;57877;39.750;-104.894;2023-04-26T06:59:53;83751.01;;;4.53;59.53
70437;BME280;57877;39.750;-104.894;2023-04-26T07:02:18;83752.60;;;5.62;58.21
70437;BME280;57877;39.750;-104.894;2023-04-26T07:04:43;83752.18;;;5.97;57.27
70437;BME280;57877;39.750;-104.894;2023-04-26T07:07:08;83754.13;;;5.36;58.49
70437;BME280;57877;39.750;-104.894;2023-04-26T07:09:33;83756.50;;;4.90;58.91
70437;BME280;57877;39.750;-104.894;2023-04-26T07:11:58;83754.58;;;5.18;58.84
70437;BME280;57877;39.750;-104.894;2023-04-26T07:14:23;83753.13;;;5.14;58.63
70437;BME280;57877;39.750;-104.894;2023-04-26T07:16:48;83753.31;;;4.48;60.82
70437;BME280;57877;39.750;-104.894;2023-04-26T07:19:14;83753.79;;;4.87;59.61
70437;BME280;57877;39.750;-104.894;2023-04-26T07:21:39;83754.01;;;5.42;58.59
70437;BME280;57877;39.750;-104.894;2023-04-26T07:24:04;83754.11;;;5.59;58.07
70437;BME280;57877;39.750;-104.894;2023-04-26T07:26:29;83757.13;;;5.87;57.95
70437;BME280;57877;39.750;-104.894;2023-04-26T07:28:54;83756.60;;;5.64;58.92
70437;BME280;57877;39.750;-104.894;2023-04-26T07:31:19;83759.05;;;6.34;56.50
70437;BME280;57877;39.750;-104.894;2023-04-26T07:33:44;83758.00;;;5.92;56.63
70437;BME280;57877;39.750;-104.894;2023-04-26T07:36:09;83755.89;;;4.63;58.86
70437;BME280;57877;39.750;-104.894;2023-04-26T07:38:34;83753.59;;;4.66;62.26
70437;BME280;57877;39.750;-104.894;2023-04-26T07:41:00;83753.69;;;5.35;60.52
70437;BME280;57877;39.750;-104.894;2023-04-26T07:43:26;83753.21;;;4.09;61.75
70437;BME280;57877;39.750;-104.894;2023-04-26T07:45:50;83756.15;;;4.84;59.27
70437;BME280;57877;39.750;-104.894;2023-04-26T07:48:15;83756.88;;;5.54;59.59
70437;BME280;57877;39.750;-104.894;2023-04-26T07:50:41;83757.67;;;5.19;59.60
70437;BME280;57877;39.750;-104.894;2023-04-26T07:53:06;83760.24;;;5.19;58.38
70437;BME280;57877;39.750;-104.894;2023-04-26T07:55:31;83758.12;;;4.96;59.24
70437;BME280;57877;39.750;-104.894;2023-04-26T07:57:56;83758.28;;;4.66;58.88
70437;BME280;57877;39.750;-104.894;2023-04-26T08:00:22;83761.02;;;5.95;58.51
70437;BME280;57877;39.750;-104.894;2023-04-26T08:02:46;83764.61;;;5.27;58.87
70437;BME280;57877;39.750;-104.894;2023-04-26T08:05:13;83765.60;;;5.72;57.84
70437;BME280;57877;39.750;-104.894;2023-04-26T08:07:37;83767.89;;;5.24;59.44
70437;BME280;57877;39.750;-104.894;2023-04-26T08:10:03;83772.10;;;5.96;58.14
70437;BME280;57877;39.750;-104.894;2023-04-26T08:12:29;83767.69;;;5.60;57.67
70437;BME280;57877;39.750;-104.894;2023-04-26T08:14:53;83770.30;;;6.29;56.41
70437;BME280;57877;39.750;-104.894;2023-04-26T08:17:18;83767.16;;;5.21;57.59
70437;BME280;57877;39.750;-104.894;2023-04-26T08:19:43;83766.08;;;5.60;57.67
70437;BME280;57877;39.750;-104.894;2023-04-26T08:22:09;83763.62;;;5.30;58.13
70437;BME280;57877;39.750;-104.894;2023-04-26T08:24:34;83762.82;;;5.75;57.38
70437;BME280;57877;39.750;-104.894;2023-04-26T08:26:59;83768.54;;;6.27;55.96
70437;BME280;57877;39.750;-104.894;2023-04-26T08:29:24;83765.63;;;5.19;58.33
70437;BME280;57877;39.750;-104.894;2023-04-26T08:31:49;83763.29;;;6.00;57.08
70437;BME280;57877;39.750;-104.894;2023-04-26T08:34:14;83766.00;;;5.72;57.43
70437;BME280;57877;39.750;-104.894;2023-04-26T08:36:39;83765.39;;;5.16;57.12
70437;BME280;57877;39.750;-104.894;2023-04-26T08:39:04;83765.25;;;5.52;57.86
70437;BME280;57877;39.750;-104.894;2023-04-26T08:41:30;83768.70;;;6.27;55.88
70437;BME280;57877;39.750;-104.894;2023-04-26T08:43:54;83771.75;;;4.20;59.07
70437;BME280;57877;39.750;-104.894;2023-04-26T08:46:19;83775.36;;;4.85;59.59
70437;BME280;57877;39.750;-104.894;2023-04-26T08:48:46;83778.95;;;4.89;57.85
70437;BME280;57877;39.750;-104.894;2023-04-26T08:51:12;83782.78;;;5.66;56.98
70437;BME280;57877;39.750;-104.894;2023-04-26T08:53:35;83786.39;;;5.04;58.71
70437;BME280;57877;39.750;-104.894;2023-04-26T08:56:00;83785.60;;;5.73;57.86
70437;BME280;57877;39.750;-104.894;2023-04-26T08:58:24;83784.78;;;4.82;58.70
70437;BME280;57877;39.750;-104.894;2023-04-26T09:00:49;83786.66;;;5.51;58.42
70437;BME280;57877;39.750;-104.894;2023-04-26T09:03:14;83788.32;;;5.15;57.53
70437;BME280;57877;39.750;-104.894;2023-04-26T09:05:40;83790.67;;;5.21;58.08
70437;BME280;57877;39.750;-104.894;2023-04-26T09:08:06;83791.96;;;4.10;60.76
70437;BME280;57877;39.750;-104.894;2023-04-26T09:10:30;83793.71;;;4.72;59.90
70437;BME280;57877;39.750;-104.894;2023-04-26T09:12:55;83795.60;;;4.21;61.50
70437;BME280;57877;39.750;-104.894;2023-04-26T09:15:21;83799.62;;;4.78;60.90
70437;BME280;57877;39.750;-104.894;2023-04-26T09:17:45;83800.47;;;4.83;59.40
70437;BME280;57877;39.750;-104.894;2023-04-26T09:20:18;83802.37;;;4.56;60.61
70437;BME280;57877;39.750;-104.894;2023-04-26T09:22:36;83802.94;;;5.36;58.48
70437;BME280;57877;39.750;-104.894;2023-04-26T09:25:00;83802.46;;;5.07;57.59
70437;BME280;57877;39.750;-104.894;2023-04-26T09:27:33;83803.29;;;4.36;59.41
70437;BME280;57877;39.750;-104.894;2023-04-26T09:29:58;83806.42;;;4.12;60.54
70437;BME280;57877;39.750;-104.894;2023-04-26T09:32:15;83809.44;;;4.78;59.18
70437;BME280;57877;39.750;-104.894;2023-04-26T09:34:45;83812.95;;;5.35;58.00
70437;BME280;57877;39.750;-104.894;2023-04-26T09:37:06;83819.74;;;4.93;57.84
70437;BME280;57877;39.750;-104.894;2023-04-26T09:39:32;83820.41;;;4.70;58.71
70437;BME280;57877;39.750;-104.894;2023-04-26T09:41:55;83820.17;;;5.63;56.85
70437;BME280;57877;39.750;-104.894;2023-04-26T09:44:21;83822.22;;;5.68;56.76
70437;BME280;57877;39.750;-104.894;2023-04-26T09:49:10;83823.86;;;4.82;56.81
70437;BME280;57877;39.750;-104.894;2023-04-26T09:51:35;83825.93;;;3.96;60.00
70437;BME280;57877;39.750;-104.894;2023-04-26T09:54:01;83828.38;;;5.42;56.89
70437;BME280;57877;39.750;-104.894;2023-04-26T09:56:26;83830.13;;;5.96;56.52
70437;BME280;57877;39.750;-104.894;2023-04-26T09:58:56;83831.91;;;5.08;56.62
70437;BME280;57877;39.750;-104.894;2023-04-26T10:01:18;83830.10;;;5.17;56.58
70437;BME280;57877;39.750;-104.894;2023-04-26T10:03:41;83835.44;;;5.07;57.67
70437;BME280;57877;39.750;-104.894;2023-04-26T10:06:06;83838.19;;;4.00;60.03
70437;BME280;57877;39.750;-104.894;2023-04-26T10:08:31;83844.72;;;3.59;61.62
70437;BME280;57877;39.750;-104.894;2023-04-26T10:10:56;83843.71;;;4.56;59.84
70437;BME280;57877;39.750;-104.894;2023-04-26T10:13:22;83848.54;;;3.52;62.45
70437;BME280;57877;39.750;-104.894;2023-04-26T10:15:47;83844.92;;;3.89;61.74
70437;BME280;57877;39.750;-104.894;2023-04-26T10:18:12;83846.15;;;4.11;60.71
70437;BME280;57877;39.750;-104.894;2023-04-26T10:20:41;83851.44;;;3.92;61.50
70437;BME280;57877;39.750;-104.894;2023-04-26T10:23:03;83851.26;;;3.96;60.55
70437;BME280;57877;39.750;-104.894;2023-04-26T10:25:34;83855.89;;;3.82;60.42
70437;BME280;57877;39.750;-104.894;2023-04-26T10:27:52;83858.19;;;4.61;58.86
70437;BME280;57877;39.750;-104.894;2023-04-26T10:30:20;83855.00;;;4.32;58.76
70437;BME280;57877;39.750;-104.894;2023-04-26T10:35:10;83861.33;;;4.90;58.55
70437;BME280;57877;39.750;-104.894;2023-04-26T10:37:33;83864.95;;;5.23;58.17
70437;BME280;57877;39.750;-104.894;2023-04-26T10:42:25;83862.70;;;5.05;56.33
70437;BME280;57877;39.750;-104.894;2023-04-26T10:44:48;83864.88;;;4.48;58.15
70437;BME280;57877;39.750;-104.894;2023-04-26T10:47:20;83864.81;;;4.35;58.78
70437;BME280;57877;39.750;-104.894;2023-04-26T10:49:43;83865.10;;;5.27;56.69
70437;BME280;57877;39.750;-104.894;2023-04-26T10:52:08;83868.18;;;4.90;57.79
70437;BME280;57877;39.750;-104.894;2023-04-26T10:56:53;83868.45;;;4.36;58.09
70437;BME280;57877;39.750;-104.894;2023-04-26T10:59:20;83873.38;;;4.17;59.42
70437;BME280;57877;39.750;-104.894;2023-04-26T11:01:43;83874.67;;;4.07;59.41
70437;BME280;57877;39.750;-104.894;2023-04-26T11:04:09;83876.47;;;5.16;57.38
70437;BME280;57877;39.750;-104.894;2023-04-26T11:08:59;83878.26;;;5.02;57.50
70437;BME280;57877;39.750;-104.894;2023-04-26T11:11:25;83879.41;;;4.92;57.06
70437;BME280;57877;39.750;-104.894;2023-04-26T11:13:48;83881.21;;;4.27;59.40
70437;BME280;57877;39.750;-104.894;2023-04-26T11:16:15;83884.00;;;4.74;59.25
70437;BME280;57877;39.750;-104.894;2023-04-26T11:18:40;83885.82;;;5.54;57.36
70437;BME280;57877;39.750;-104.894;2023-04-26T11:21:05;83891.20;;;4.85;58.18
70437;BME280;57877;39.750;-104.894;2023-04-26T11:23:30;83896.59;;;4.68;58.42
70437;BME280;57877;39.750;-104.894;2023-04-26T11:25:56;83896.89;;;4.88;57.37
70437;BME280;57877;39.750;-104.894;2023-04-26T11:28:19;83895.66;;;4.33;59.99
70437;BME280;57877;39.750;-104.894;2023-04-26T11:30:44;83898.29;;;4.10;60.59
70437;BME280;57877;39.750;-104.894;2023-04-26T11:33:15;83905.96;;;2.58;64.97
70437;BME280;57877;39.750;-104.894;2023-04-26T11:35:35;83904.10;;;3.46;63.32
70437;BME280;57877;39.750;-104.894;2023-04-26T11:38:02;83906.56;;;3.84;62.24
70437;BME280;57877;39.750;-104.894;2023-04-26T11:40:28;83907.88;;;4.78;59.94
70437;BME280;57877;39.750;-104.894;2023-04-26T11:42:50;83907.02;;;4.36;60.82
70437;BME280;57877;39.750;-104.894;2023-04-26T11:45:15;83911.88;;;5.04;58.87
70437;BME280;57877;39.750;-104.894;2023-04-26T11:47:40;83911.58;;;4.34;60.52
70437;BME280;57877;39.750;-104.894;2023-04-26T11:50:06;83910.96;;;4.53;60.26
70437;BME280;57877;39.750;-104.894;2023-04-26T11:52:31;83915.53;;;3.43;64.88
70437;BME280;57877;39.750;-104.894;2023-04-26T11:55:01;83917.03;;;2.80;63.69
70437;BME280;57877;39.750;-104.894;2023-04-26T11:57:20;83917.21;;;3.14;64.77
70437;BME280;57877;39.750;-104.894;2023-04-26T11:59:45;83918.88;;;3.94;62.82
70437;BME280;57877;39.750;-104.894;2023-04-26T12:02:11;83920.39;;;4.19;60.85
70437;BME280;57877;39.750;-104.894;2023-04-26T12:04:37;83918.47;;;4.75;58.83
70437;BME280;57877;39.750;-104.894;2023-04-26T12:07:03;83919.56;;;4.12;60.92
70437;BME280;57877;39.750;-104.894;2023-04-26T12:09:27;83925.97;;;3.77;61.68
70437;BME280;57877;39.750;-104.894;2023-04-26T12:11:56;83925.32;;;5.03;57.87
70437;BME280;57877;39.750;-104.894;2023-04-26T12:14:16;83926.07;;;4.68;58.51
70437;BME280;57877;39.750;-104.894;2023-04-26T12:16:42;83929.10;;;4.56;59.43
70437;BME280;57877;39.750;-104.894;2023-04-26T12:19:07;83932.20;;;4.75;58.22
70437;BME280;57877;39.750;-104.894;2023-04-26T12:21:39;83930.37;;;4.37;59.99
70437;BME280;57877;39.750;-104.894;2023-04-26T12:23:56;83930.12;;;4.79;58.52
70437;BME280;57877;39.750;-104.894;2023-04-26T12:26:21;83931.87;;;4.66;59.47
70437;BME280;57877;39.750;-104.894;2023-04-26T12:28:46;83936.59;;;5.03;57.01
70437;BME280;57877;39.750;-104.894;2023-04-26T12:31:11;83940.50;;;3.29;61.80
70437;BME280;57877;39.750;-104.894;2023-04-26T12:33:36;83943.97;;;3.81;60.19
70437;BME280;57877;39.750;-104.894;2023-04-26T12:36:07;83944.97;;;4.12;60.67
70437;BME280;57877;39.750;-104.894;2023-04-26T12:38:27;83949.05;;;4.12;60.32
70437;BME280;57877;39.750;-104.894;2023-04-26T12:40:51;83952.40;;;4.11;59.78